Time;durP1;ratioP1;P1;durP2;ratioP2;P2;SDS_P1;SDS_P2;PMS_P1;PMS_P2;Temp;Humidity;BMP_temperature;BMP_pressure;BME280_temperature;BME280_humidity;BME280_pressure;Samples;Min_cycle;Max_cycle;Signal;HPM_P1;HPM_P2
2023/03/15 00:00:46;;;;;;;9.75;3.50;;;;;;;3.65;100.00;100685.56;5056100;28;20020;-76
2023/03/15 00:03:13;;;;;;;9.73;3.70;;;;;;;3.65;100.00;100687.47;5099039;28;20024;-76
2023/03/15 00:05:42;;;;;;;8.13;3.72;;;;;;;3.69;100.00;100688.66;5099429;28;20049;-75
2023/03/15 00:08:08;;;;;;;7.97;3.72;;;;;;;3.65;100.00;100690.22;5078895;28;20545;-76
2023/03/15 00:10:33;;;;;;;8.43;3.83;;;;;;;3.66;100.00;100689.16;5069880;28;20186;-76
2023/03/15 00:12:59;;;;;;;7.47;3.53;;;;;;;3.68;100.00;100687.00;5096808;28;20042;-76
2023/03/15 00:15:25;;;;;;;10.27;3.22;;;;;;;3.66;100.00;100692.72;5082524;28;20778;-76
2023/03/15 00:17:50;;;;;;;10.43;3.55;;;;;;;3.65;100.00;100691.06;5082168;28;20628;-76
2023/03/15 00:20:18;;;;;;;12.32;3.63;;;;;;;3.64;100.00;100697.63;5081906;28;20038;-75
2023/03/15 00:22:43;;;;;;;9.40;3.80;;;;;;;3.61;100.00;100678.88;5098573;28;20040;-76
2023/03/15 00:25:09;;;;;;;9.45;3.85;;;;;;;3.63;100.00;100678.66;5098926;28;20043;-76
2023/03/15 00:27:34;;;;;;;11.00;3.83;;;;;;;3.56;100.00;100684.28;5065183;28;20027;-76
2023/03/15 00:30:00;;;;;;;8.15;3.47;;;;;;;3.60;100.00;100682.72;5070657;28;20028;-75
2023/03/15 00:32:25;;;;;;;10.68;4.28;;;;;;;3.52;100.00;100683.94;5083800;28;20035;-76
2023/03/15 00:34:53;;;;;;;9.65;3.83;;;;;;;3.55;100.00;100674.38;5078089;28;20028;-76
2023/03/15 00:37:19;;;;;;;10.93;4.43;;;;;;;3.52;100.00;100675.69;5078698;28;20023;-76
2023/03/15 00:39:45;;;;;;;10.98;4.07;;;;;;;3.45;100.00;100679.66;5077874;28;20019;-76
2023/03/15 00:42:14;;;;;;;9.43;3.83;;;;;;;3.47;100.00;100675.59;5098231;28;20555;-76
2023/03/15 00:44:41;;;;;;;9.07;4.03;;;;;;;3.45;100.00;100683.22;5098985;28;20036;-76
2023/03/15 00:47:07;;;;;;;11.07;4.15;;;;;;;3.45;100.00;100677.72;5065416;28;20048;-75
2023/03/15 00:49:32;;;;;;;11.63;4.13;;;;;;;3.41;100.00;100686.72;5088640;28;20596;-76
2023/03/15 00:51:58;;;;;;;10.32;4.40;;;;;;;3.39;100.00;100686.13;5085092;27;20043;-76
2023/03/15 00:54:23;;;;;;;9.23;4.28;;;;;;;3.36;100.00;100685.50;5079017;28;20532;-76
2023/03/15 00:56:49;;;;;;;10.35;4.22;;;;;;;3.34;100.00;100678.59;5094229;28;20028;-76
2023/03/15 00:59:14;;;;;;;13.90;4.45;;;;;;;3.34;100.00;100676.72;5068344;28;20063;-76
2023/03/15 01:01:43;;;;;;;14.65;4.65;;;;;;;3.30;100.00;100675.50;5099335;27;20019;-76
2023/03/15 01:04:10;;;;;;;9.38;4.43;;;;;;;3.30;100.00;100675.50;5087142;28;20028;-76
2023/03/15 01:06:36;;;;;;;9.80;4.50;;;;;;;3.28;100.00;100674.91;5074204;28;20024;-76
2023/03/15 01:09:02;;;;;;;11.07;4.72;;;;;;;3.25;100.00;100672.66;5089066;28;20590;-75
2023/03/15 01:11:27;;;;;;;11.07;4.78;;;;;;;3.22;100.00;100666.81;5084692;28;20024;-76
2023/03/15 01:13:54;;;;;;;9.40;4.70;;;;;;;3.22;100.00;100681.38;5109328;27;20399;-76
2023/03/15 01:16:20;;;;;;;13.98;4.85;;;;;;;3.22;100.00;100684.13;5087853;27;20082;-76
2023/03/15 01:18:45;;;;;;;10.13;4.32;;;;;;;3.22;100.00;100684.13;5072375;28;20536;-76
2023/03/15 01:21:12;;;;;;;11.98;4.70;;;;;;;3.18;100.00;100685.69;5111215;28;20031;-76
2023/03/15 01:23:38;;;;;;;11.25;4.85;;;;;;;3.17;100.00;100696.88;5097579;28;20027;-75
2023/03/15 01:26:05;;;;;;;10.40;4.63;;;;;;;3.16;100.00;100697.97;5086078;27;20618;-76
2023/03/15 01:28:30;;;;;;;9.55;4.50;;;;;;;3.14;100.00;100692.72;5085234;28;20027;-76
2023/03/15 01:30:56;;;;;;;10.10;4.60;;;;;;;3.10;100.00;100692.38;5061031;28;20433;-76
2023/03/15 01:33:21;;;;;;;12.75;4.97;;;;;;;3.13;100.00;100694.63;5069580;28;20032;-76
2023/03/15 01:35:46;;;;;;;10.82;4.30;;;;;;;3.15;100.00;100694.41;5085244;27;20040;-76
2023/03/15 01:38:12;;;;;;;14.77;4.50;;;;;;;3.13;100.00;100696.53;5086936;28;20032;-76
2023/03/15 01:40:42;;;;;;;12.80;4.03;;;;;;;3.10;100.00;100697.84;5077352;28;20024;-76
2023/03/15 01:43:07;;;;;;;9.30;4.35;;;;;;;3.07;100.00;100692.84;5080744;28;20039;-76
2023/03/15 01:45:58;;;;;;;11.80;4.30;;;;;;;3.08;100.00;100699.16;5129258;27;20685;-76
2023/03/15 01:48:26;;;;;;;9.10;4.43;;;;;;;3.07;100.00;100703.81;5114888;28;20122;-76
2023/03/15 01:50:54;;;;;;;13.77;5.05;;;;;;;3.08;100.00;100710.97;5063651;28;20035;-76
2023/03/15 01:53:22;;;;;;;8.80;4.20;;;;;;;3.08;100.00;100710.16;5068993;28;20039;-76
2023/03/15 01:55:48;;;;;;;11.30;3.95;;;;;;;3.06;100.00;100701.31;5081101;28;20023;-76
2023/03/15 01:58:13;;;;;;;10.32;4.78;;;;;;;3.03;100.00;100697.13;5063357;28;20028;-76
2023/03/15 02:00:39;;;;;;;11.60;4.55;;;;;;;3.05;100.00;100705.97;5043702;28;20036;-76
2023/03/15 02:03:16;;;;;;;12.32;4.60;;;;;;;3.07;100.00;100695.59;5063598;28;20446;-76
2023/03/15 02:05:48;;;;;;;12.93;4.65;;;;;;;3.07;100.00;100703.00;5050503;28;20164;-76
2023/03/15 02:08:15;;;;;;;9.97;4.57;;;;;;;3.08;100.00;100707.41;5084591;28;20046;-76
2023/03/15 02:10:47;;;;;;;8.82;4.00;;;;;;;3.07;100.00;100703.81;5081322;28;20020;-76
2023/03/15 02:13:14;;;;;;;12.10;4.07;;;;;;;3.07;100.00;100703.00;5068136;28;20452;-76
2023/03/15 02:15:45;;;;;;;13.30;4.45;;;;;;;3.12;100.00;100711.31;5081070;28;20059;-76
2023/03/15 02:18:11;;;;;;;10.27;4.20;;;;;;;3.09;100.00;100698.94;5085662;28;20028;-76
2023/03/15 02:20:52;;;;;;;14.75;4.28;;;;;;;3.13;100.00;100702.03;5101034;28;20032;-76
2023/03/15 02:23:19;;;;;;;7.45;3.60;;;;;;;3.11;100.00;100701.44;5080639;28;20052;-76
2023/03/15 02:26:01;;;;;;;11.82;4.00;;;;;;;3.09;100.00;100706.31;5064208;28;20058;-76
2023/03/15 02:28:26;;;;;;;9.25;4.22;;;;;;;3.08;100.00;100699.16;5084151;28;20031;-76
2023/03/15 02:30:52;;;;;;;11.70;4.47;;;;;;;3.09;100.00;100709.91;5080006;28;20028;-76
2023/03/15 02:33:29;;;;;;;9.93;3.95;;;;;;;3.08;100.00;100710.16;5074222;28;20023;-76
2023/03/15 02:35:54;;;;;;;10.82;4.00;;;;;;;3.09;100.00;100709.06;5066927;28;20031;-76
2023/03/15 02:38:21;;;;;;;11.63;4.53;;;;;;;3.04;100.00;100698.00;5082240;28;20044;-76
2023/03/15 02:40:47;;;;;;;8.57;4.22;;;;;;;3.08;100.00;100710.16;5084324;28;20032;-76
2023/03/15 02:43:18;;;;;;;7.38;4.03;;;;;;;3.04;100.00;100704.31;5083891;28;20027;-76
2023/03/15 02:45:43;;;;;;;13.38;4.18;;;;;;;3.05;100.00;100711.44;5079267;28;20035;-76
2023/03/15 02:48:09;;;;;;;15.32;4.47;;;;;;;3.03;100.00;100699.03;5073883;28;20044;-76
2023/03/15 02:50:34;;;;;;;12.30;4.00;;;;;;;3.04;100.00;100700.75;5079762;28;20036;-76
2023/03/15 02:53:01;;;;;;;10.48;3.97;;;;;;;3.03;100.00;100704.53;5066843;28;20027;-76
2023/03/15 02:55:28;;;;;;;9.55;3.83;;;;;;;3.04;100.00;100704.31;5098877;28;20403;-76
2023/03/15 02:57:53;;;;;;;8.80;3.60;;;;;;;3.07;100.00;100701.09;5079320;28;20024;-75
2023/03/15 03:00:19;;;;;;;9.27;3.95;;;;;;;3.07;100.00;100697.50;5083328;28;20438;-76
2023/03/15 03:02:45;;;;;;;9.77;3.90;;;;;;;3.04;100.00;100698.00;5100536;28;20040;-76
2023/03/15 03:05:11;;;;;;;9.75;4.10;;;;;;;3.06;100.00;100693.06;5082778;28;20116;-76
2023/03/15 03:07:37;;;;;;;9.20;4.07;;;;;;;3.06;100.00;100691.16;5079940;28;20032;-76
2023/03/15 03:10:06;;;;;;;10.98;3.90;;;;;;;3.04;100.00;100693.34;5076989;27;20023;-76
2023/03/15 03:12:32;;;;;;;6.55;3.95;;;;;;;3.04;100.00;100681.53;5106773;28;20035;-76
2023/03/15 03:14:57;;;;;;;8.80;4.15;;;;;;;3.02;100.00;100679.00;5100119;28;20031;-75
2023/03/15 03:17:23;;;;;;;8.98;3.95;;;;;;;3.03;100.00;100677.09;5082492;28;20030;-76
2023/03/15 03:19:48;;;;;;;12.63;5.15;;;;;;;3.05;100.00;100681.28;5099707;28;20039;-76
2023/03/15 03:22:14;;;;;;;14.13;5.40;;;;;;;3.06;100.00;100682.94;5080118;28;20039;-76
2023/03/15 03:24:44;;;;;;;11.35;4.97;;;;;;;3.06;100.00;100679.34;5079591;28;20032;-76
2023/03/15 03:27:13;;;;;;;10.98;4.93;;;;;;;3.07;100.00;100676.38;5112636;28;20036;-76
2023/03/15 03:29:40;;;;;;;8.93;4.80;;;;;;;3.06;100.00;100684.84;5100014;28;20051;-76
2023/03/15 03:32:05;;;;;;;7.95;4.57;;;;;;;3.06;100.00;100684.84;5082785;28;20023;-76
2023/03/15 03:34:31;;;;;;;9.30;5.20;;;;;;;3.05;100.00;100677.69;5062776;28;20028;-76
2023/03/15 03:36:56;;;;;;;10.20;4.18;;;;;;;3.08;100.00;100678.03;5083006;28;20055;-75
2023/03/15 03:39:22;;;;;;;9.13;4.47;;;;;;;3.07;100.00;100681.88;5046140;28;20024;-76
2023/03/15 03:41:48;;;;;;;9.95;4.55;;;;;;;3.07;100.00;100678.31;5092796;28;20019;-75
2023/03/15 03:44:14;;;;;;;10.90;3.97;;;;;;;3.09;100.00;100677.00;5065885;28;20050;-75
2023/03/15 03:46:39;;;;;;;11.05;4.18;;;;;;;3.07;100.00;100678.31;5062664;28;20044;-76
2023/03/15 03:49:05;;;;;;;8.85;4.25;;;;;;;3.11;100.00;100674.81;5082428;28;20028;-76
2023/03/15 03:51:32;;;;;;;9.00;4.38;;;;;;;3.05;100.00;100673.03;5082775;28;20031;-76
2023/03/15 03:53:58;;;;;;;11.95;4.78;;;;;;;3.08;100.00;100667.06;5090689;28;20057;-76
2023/03/15 03:56:24;;;;;;;6.80;3.53;;;;;;;3.05;100.00;100666.72;5098992;28;20027;-76
2023/03/15 03:58:49;;;;;;;7.32;3.88;;;;;;;3.10;100.00;100666.84;5070195;28;20031;-75
2023/03/15 04:01:15;;;;;;;10.20;4.18;;;;;;;3.06;100.00;100657.41;5098908;28;20031;-76
2023/03/15 04:03:41;;;;;;;8.70;4.05;;;;;;;3.08;100.00;100655.25;5062063;28;20036;-76
2023/03/15 04:06:06;;;;;;;10.25;3.88;;;;;;;3.07;100.00;100661.84;5076081;28;20020;-76
2023/03/15 04:08:32;;;;;;;6.50;3.63;;;;;;;3.03;100.00;100658.72;5099161;28;20030;-76
2023/03/15 04:10:57;;;;;;;9.40;3.70;;;;;;;3.04;100.00;100656.84;5098809;28;20457;-76
2023/03/15 04:13:23;;;;;;;9.35;3.50;;;;;;;3.03;100.00;100655.97;5082136;28;20048;-76
2023/03/15 04:15:49;;;;;;;13.20;4.22;;;;;;;3.02;100.00;100654.31;5079867;28;20480;-76
2023/03/15 04:18:14;;;;;;;5.38;3.35;;;;;;;3.04;100.00;100654.09;5078270;28;20024;-76
2023/03/15 04:20:45;;;;;;;7.50;3.20;;;;;;;3.00;100.00;100650.13;5059993;28;20415;-76
2023/03/15 04:23:14;;;;;;;9.73;3.13;;;;;;;2.97;100.00;100658.84;5082561;28;20032;-76
2023/03/15 04:25:39;;;;;;;8.70;3.95;;;;;;;2.93;100.00;100646.72;5098565;28;20476;-76
2023/03/15 04:28:09;;;;;;;7.90;4.05;;;;;;;2.94;100.00;100648.38;5061297;28;20046;-75
2023/03/15 04:30:35;;;;;;;9.27;3.33;;;;;;;2.94;100.00;100648.38;5093451;28;20079;-76
2023/03/15 04:33:02;;;;;;;13.85;4.18;;;;;;;2.88;100.00;100651.00;5066202;28;20040;-76
2023/03/15 04:35:32;;;;;;;9.32;3.67;;;;;;;2.90;100.00;100654.34;5065080;28;20092;-76
2023/03/15 04:37:58;;;;;;;11.13;4.38;;;;;;;2.87;100.00;100654.81;5098628;28;20031;-76
2023/03/15 04:40:24;;;;;;;10.48;4.38;;;;;;;2.83;100.00;100652.78;5079784;28;20043;-76
2023/03/15 04:42:50;;;;;;;11.07;4.15;;;;;;;2.78;100.00;100650.75;5098369;28;20038;-76
2023/03/15 04:45:16;;;;;;;10.30;4.13;;;;;;;2.76;100.00;100661.16;5098099;28;20031;-75
2023/03/15 04:47:41;;;;;;;6.88;3.40;;;;;;;2.70;100.00;100662.06;5129111;27;20051;-76
2023/03/15 04:50:08;;;;;;;10.65;3.10;;;;;;;2.74;100.00;100681.66;5100868;27;20126;-76
2023/03/15 04:52:33;;;;;;;8.60;3.13;;;;;;;2.70;100.00;100684.00;5096968;28;20024;-75
2023/03/15 04:54:59;;;;;;;8.35;3.45;;;;;;;2.68;100.00;100681.53;5097778;27;20043;-76
2023/03/15 04:57:24;;;;;;;6.68;3.45;;;;;;;2.64;100.00;100690.44;5101902;27;20023;-76
2023/03/15 04:59:50;;;;;;;8.82;3.70;;;;;;;2.62;100.00;100696.19;5101236;27;20031;-76
2023/03/15 05:02:15;;;;;;;9.93;3.08;;;;;;;2.63;100.00;100694.28;5118501;27;20108;-76
2023/03/15 05:04:41;;;;;;;12.95;3.60;;;;;;;2.62;100.00;100703.59;5118055;27;20042;-76
2023/03/15 05:07:07;;;;;;;9.52;3.50;;;;;;;2.59;100.00;100704.03;5097895;28;20114;-76
2023/03/15 05:09:36;;;;;;;8.77;3.20;;;;;;;2.52;100.00;100700.59;5064882;27;20055;-75
2023/03/15 05:12:03;;;;;;;7.63;3.22;;;;;;;2.49;100.00;100687.34;5098412;28;20024;-75
2023/03/15 05:14:29;;;;;;;7.63;2.70;;;;;;;2.46;100.00;100694.97;5080973;27;20023;-76
2023/03/15 05:16:57;;;;;;;14.18;3.60;;;;;;;2.41;100.00;100696.75;5118203;27;20027;-76
2023/03/15 05:19:23;;;;;;;10.35;3.70;;;;;;;2.39;100.00;100693.41;5118175;27;20032;-75
2023/03/15 05:21:48;;;;;;;7.35;3.53;;;;;;;2.34;100.00;100699.59;5079510;28;20103;-76
2023/03/15 05:24:14;;;;;;;8.40;3.75;;;;;;;2.31;100.00;100700.03;5117802;27;20031;-75
2023/03/15 05:26:39;;;;;;;8.85;3.47;;;;;;;2.31;100.00;100699.22;5118396;27;20027;-75
2023/03/15 05:29:05;;;;;;;17.05;4.30;;;;;;;2.29;100.00;100696.72;5100854;27;20023;-75
2023/03/15 05:31:35;;;;;;;8.70;4.53;;;;;;;2.24;100.00;100689.19;5108558;28;20391;-76
2023/03/15 05:34:03;;;;;;;10.15;4.60;;;;;;;2.30;100.00;100695.66;5114277;27;20047;-76
2023/03/15 05:36:32;;;;;;;10.18;3.95;;;;;;;2.28;100.00;100699.69;5135919;27;20395;-75
2023/03/15 05:38:57;;;;;;;8.77;4.15;;;;;;;2.21;100.00;100705.28;5097369;28;20038;-76
2023/03/15 05:41:22;;;;;;;10.25;3.63;;;;;;;2.20;100.00;100720.03;5071563;27;20019;-76
2023/03/15 05:43:49;;;;;;;8.15;3.80;;;;;;;2.16;100.00;100716.09;5070008;27;20441;-76
2023/03/15 05:46:14;;;;;;;7.13;3.42;;;;;;;2.14;100.00;100720.97;5096964;28;20060;-75
2023/03/15 05:48:39;;;;;;;9.20;3.78;;;;;;;2.16;100.00;100722.41;5077483;28;20445;-76
2023/03/15 05:51:05;;;;;;;7.80;3.40;;;;;;;2.14;100.00;100727.28;5091259;28;20020;-75
2023/03/15 05:53:30;;;;;;;10.32;4.22;;;;;;;2.12;100.00;100731.34;5082928;28;20027;-75
2023/03/15 05:55:56;;;;;;;13.85;4.75;;;;;;;2.09;100.00;100735.41;5117846;28;20023;-75
2023/03/15 05:58:22;;;;;;;12.88;4.53;;;;;;;2.08;100.00;100730.13;5083381;28;20053;-76
2023/03/15 06:00:48;;;;;;;7.78;4.10;;;;;;;2.08;100.00;100727.41;5080485;28;20032;-75
2023/03/15 06:03:14;;;;;;;10.32;4.55;;;;;;;2.04;100.00;100726.19;5096690;28;20031;-76
2023/03/15 06:05:40;;;;;;;7.75;4.28;;;;;;;2.04;100.00;100732.50;5063418;28;20088;-75
2023/03/15 06:08:05;;;;;;;9.80;4.60;;;;;;;1.98;100.00;100734.28;5115161;28;20035;-75
2023/03/15 06:10:32;;;;;;;10.32;4.70;;;;;;;2.00;100.00;100723.91;5066410;28;20023;-75
2023/03/15 06:12:58;;;;;;;10.80;4.93;;;;;;;1.97;100.00;100721.63;5080333;28;20028;-75
2023/03/15 06:15:23;;;;;;;10.23;4.97;;;;;;;1.96;100.00;100719.13;5074952;28;20076;-76
2023/03/15 06:17:49;;;;;;;9.75;4.97;;;;;;;1.97;100.00;100721.63;5100295;28;20027;-75
2023/03/15 06:20:15;;;;;;;11.57;5.20;;;;;;;1.94;100.00;100721.25;5100097;28;20084;-75
2023/03/15 06:22:40;;;;;;;8.52;4.40;;;;;;;1.92;100.00;100716.03;5080387;28;20039;-76
2023/03/15 06:25:06;;;;;;;10.68;4.65;;;;;;;1.94;100.00;100713.03;5097012;28;20028;-76
2023/03/15 06:27:32;;;;;;;9.82;4.78;;;;;;;1.95;100.00;100710.09;5080095;28;20024;-75
2023/03/15 06:29:58;;;;;;;11.07;4.38;;;;;;;1.92;100.00;100709.69;5126853;28;20380;-75
2023/03/15 06:32:23;;;;;;;8.05;4.00;;;;;;;1.92;100.00;100712.44;5099547;28;20095;-76
2023/03/15 06:34:49;;;;;;;8.70;4.30;;;;;;;1.89;100.00;100719.22;5083087;28;20023;-76
2023/03/15 06:37:14;;;;;;;7.88;3.83;;;;;;;1.89;100.00;100713.72;5117200;28;20039;-75
2023/03/15 06:39:40;;;;;;;8.05;3.53;;;;;;;1.90;100.00;100720.91;5097046;28;20044;-75
2023/03/15 06:42:07;;;;;;;12.23;3.78;;;;;;;1.90;100.00;100711.84;5082699;28;20488;-75
2023/03/15 06:44:35;;;;;;;9.85;3.75;;;;;;;1.93;100.00;100714.97;5097339;28;20032;-75
2023/03/15 06:47:01;;;;;;;9.73;3.42;;;;;;;1.94;100.00;100710.31;5077008;28;20146;-76
2023/03/15 06:49:27;;;;;;;11.35;4.18;;;;;;;1.94;100.00;100705.66;5083109;28;20062;-76
2023/03/15 06:51:52;;;;;;;8.95;2.95;;;;;;;1.99;100.00;100708.53;5100617;27;20024;-76
2023/03/15 06:54:18;;;;;;;10.88;3.42;;;;;;;2.03;100.00;100708.91;5094662;27;20023;-75
2023/03/15 06:56:43;;;;;;;7.90;3.10;;;;;;;2.06;100.00;100702.13;5084118;27;20031;-76
2023/03/15 06:59:09;;;;;;;8.60;3.20;;;;;;;2.10;100.00;100708.81;5081274;28;20024;-76
2023/03/15 07:01:35;;;;;;;11.68;3.63;;;;;;;2.10;100.00;100714.31;5100187;28;20426;-76
2023/03/15 07:04:00;;;;;;;8.90;3.10;;;;;;;2.15;100.00;100706.22;5086984;27;20035;-75
2023/03/15 07:06:27;;;;;;;9.93;2.97;;;;;;;2.18;100.00;100713.97;5086625;27;20023;-76
2023/03/15 07:08:53;;;;;;;11.00;3.13;;;;;;;2.24;100.00;100716.59;5100595;28;20022;-76
2023/03/15 07:11:19;;;;;;;9.30;2.92;;;;;;;2.29;100.00;100724.13;5084158;27;20063;-76
2023/03/15 07:13:44;;;;;;;9.73;3.30;;;;;;;2.33;100.00;100725.31;5100193;28;20019;-76
2023/03/15 07:16:10;;;;;;;12.43;3.13;;;;;;;2.38;100.00;100728.19;5064048;28;20032;-76
2023/03/15 07:18:35;;;;;;;8.23;3.17;;;;;;;2.45;100.00;100728.94;5074157;28;20486;-76
2023/03/15 07:21:01;;;;;;;7.65;3.20;;;;;;;2.52;100.00;100734.31;5117811;27;20113;-76
2023/03/15 07:23:27;;;;;;;8.15;3.00;;;;;;;2.57;100.00;100730.88;5120483;27;20027;-76
2023/03/15 07:25:53;;;;;;;6.13;2.83;;;;;;;2.61;100.00;100730.16;5099711;28;20027;-76
2023/03/15 07:28:19;;;;;;;7.80;3.13;;;;;;;2.65;100.00;100733.28;5082850;28;20539;-76
2023/03/15 07:30:52;;;;;;;7.85;3.40;;;;;;;2.71;100.00;100736.97;5082727;28;20031;-76
2023/03/15 07:33:21;;;;;;;8.70;3.25;;;;;;;2.76;100.00;100740.69;5093359;27;20037;-76
2023/03/15 07:35:46;;;;;;;9.07;4.10;;;;;;;2.85;100.00;100750.22;5103381;27;20031;-76
2023/03/15 07:38:12;;;;;;;10.80;3.67;;;;;;;2.96;100.00;100745.00;5119042;27;20023;-77
2023/03/15 07:40:38;;;;;;;8.65;3.17;;;;;;;3.04;100.00;100750.97;5100472;27;20096;-76
2023/03/15 07:43:03;;;;;;;8.05;3.47;;;;;;;3.13;100.00;100738.53;5127822;27;20023;-76
2023/03/15 07:45:28;;;;;;;7.72;3.42;;;;;;;3.27;100.00;100743.78;5108514;27;20069;-77
2023/03/15 07:47:54;;;;;;;10.93;3.33;;;;;;;3.38;100.00;100742.09;5083782;27;20751;-77
2023/03/15 07:50:19;;;;;;;8.13;3.10;;;;;;;3.50;100.00;100734.69;5102537;27;20030;-76
2023/03/15 07:52:45;;;;;;;10.85;3.67;;;;;;;3.61;100.00;100742.06;5082448;28;20031;-76
2023/03/15 07:55:10;;;;;;;6.65;3.38;;;;;;;3.74;100.00;100747.28;5097639;28;20035;-76
2023/03/15 07:57:36;;;;;;;7.97;3.10;;;;;;;3.86;100.00;100754.66;5108945;28;20039;-76
2023/03/15 08:00:02;;;;;;;6.85;2.80;;;;;;;3.97;100.00;100762.03;5085736;27;20031;-76
2023/03/15 08:02:27;;;;;;;5.97;2.83;;;;;;;4.08;100.00;100755.66;5103050;27;20463;-76
2023/03/15 08:04:53;;;;;;;6.22;2.92;;;;;;;4.19;100.00;100748.44;5102367;27;20046;-76
2023/03/15 08:07:18;;;;;;;9.90;2.85;;;;;;;4.28;100.00;100744.19;5082364;28;20369;-76
2023/03/15 08:09:44;;;;;;;6.50;2.65;;;;;;;4.36;100.00;100741.06;5081999;28;20035;-76
2023/03/15 08:12:09;;;;;;;7.93;2.72;;;;;;;4.45;100.00;100733.22;5119182;27;20027;-76
2023/03/15 08:14:36;;;;;;;7.82;2.58;;;;;;;4.54;100.00;100733.66;5102345;27;20027;-76
2023/03/15 08:17:01;;;;;;;7.45;2.50;;;;;;;4.63;100.00;100729.44;5098880;28;20713;-77
2023/03/15 08:19:27;;;;;;;9.13;2.85;;;;;;;4.73;100.00;100726.00;5102005;28;20036;-76
2023/03/15 08:21:52;;;;;;;11.45;2.88;;;;;;;4.87;100.00;100717.16;5076456;27;20019;-76
2023/03/15 08:24:18;;;;;;;12.13;3.03;;;;;;;5.02;100.00;100722.06;5117631;27;20031;-76
2023/03/15 08:26:44;;;;;;;12.15;2.60;;;;;;;5.17;100.00;100723.38;5077093;28;20076;-77
2023/03/15 08:29:10;;;;;;;6.88;2.65;;;;;;;5.31;100.00;100727.44;5072466;28;20028;-77
2023/03/15 08:31:35;;;;;;;9.02;3.10;;;;;;;5.45;100.00;100733.41;5098694;28;20020;-76
2023/03/15 08:34:02;;;;;;;9.30;2.58;;;;;;;5.61;100.00;100729.78;5114921;27;20036;-76
2023/03/15 08:36:27;;;;;;;14.27;2.42;;;;;;;5.78;100.00;100727.78;5102036;27;20039;-77
2023/03/15 08:38:53;;;;;;;11.90;2.45;;;;;;;5.93;100.00;100721.66;5118755;27;20051;-77
2023/03/15 08:41:18;;;;;;;11.57;2.53;;;;;;;6.12;100.00;100724.06;5081356;28;20027;-77
2023/03/15 08:43:44;;;;;;;12.07;2.53;;;;;;;6.26;100.00;100712.34;5100100;27;20083;-76
2023/03/15 08:46:10;;;;;;;8.95;2.45;;;;;;;6.43;100.00;100711.41;5126203;27;20043;-77
2023/03/15 08:48:35;;;;;;;11.00;2.30;;;;;;;6.63;100.00;100713.53;5100710;27;20062;-76
2023/03/15 08:51:03;;;;;;;11.68;2.50;;;;;;;6.79;100.00;100714.50;5084771;27;20031;-77
2023/03/15 08:53:29;;;;;;;14.95;2.53;;;;;;;6.97;100.00;100719.59;5101451;27;20027;-76
2023/03/15 08:55:55;;;;;;;15.52;2.63;;;;;;;7.17;100.00;100724.44;5101996;27;20054;-77
2023/03/15 08:58:20;;;;;;;8.98;2.33;;;;;;;7.38;100.00;100717.09;5085160;27;20035;-76
2023/03/15 09:00:48;;;;;;;13.43;2.95;;;;;;;7.55;100.00;100701.16;5080906;28;20035;-76
2023/03/15 09:03:14;;;;;;;14.63;2.65;;;;;;;7.73;100.00;100712.84;5133149;27;20039;-76
2023/03/15 09:05:40;;;;;;;10.43;2.40;;;;;;;7.91;100.00;100719.81;5118718;27;20489;-76
2023/03/15 09:08:05;;;;;;;14.52;2.72;;;;;;;8.08;100.00;100734.28;5101508;27;20072;-77
2023/03/15 09:10:33;;;;;;;10.43;2.70;;;;;;;8.22;100.00;100726.28;5061435;28;20019;-77
2023/03/15 09:12:58;;;;;;;10.95;2.40;;;;;;;8.40;100.00;100733.28;5096221;28;20038;-77
2023/03/15 09:15:23;;;;;;;11.05;2.97;;;;;;;8.53;100.00;100732.75;5117676;27;20395;-77
2023/03/15 09:17:52;;;;;;;11.27;2.22;;;;;;;8.69;100.00;100730.78;5101246;27;20027;-77
2023/03/15 09:20:17;;;;;;;11.98;2.10;;;;;;;8.81;100.00;100722.25;5064622;28;20049;-78
2023/03/15 09:22:48;;;;;;;14.90;2.58;;;;;;;8.95;100.00;100723.34;5099520;27;20461;-77
2023/03/15 09:25:13;;;;;;;11.95;2.50;;;;;;;9.10;100.00;100725.25;5097633;28;20024;-77
2023/03/15 09:27:39;;;;;;;15.43;3.28;;;;;;;9.24;100.00;100726.34;5097410;28;20024;-77
2023/03/15 09:30:05;;;;;;;13.38;2.88;;;;;;;9.38;100.00;100732.94;5118225;27;20027;-77
2023/03/15 09:32:35;;;;;;;14.90;3.72;;;;;;;9.57;100.00;100730.41;5070568;27;20038;-77
2023/03/15 09:35:03;;;;;;;15.38;3.72;;;;;;;9.79;100.00;100730.06;5100150;27;20088;-77
2023/03/15 09:37:29;;;;;;;11.75;3.50;;;;;;;9.98;100.00;100735.81;5084896;27;20463;-77
2023/03/15 09:39:54;;;;;;;13.30;3.50;;;;;;;10.14;100.00;100724.63;5100408;28;20023;-77
2023/03/15 09:42:38;;;;;;;14.05;3.28;;;;;;;10.30;100.00;100726.22;5105346;28;20040;-77
2023/03/15 09:45:09;;;;;;;13.65;3.03;;;;;;;10.43;100.00;100724.78;5112146;27;20043;-78
2023/03/15 09:47:41;;;;;;;10.13;2.30;;;;;;;10.55;100.00;100732.72;5085588;28;20127;-77
2023/03/15 09:50:22;;;;;;;10.07;2.58;;;;;;;10.68;100.00;100738.47;5063448;28;20032;-77
2023/03/15 09:52:57;;;;;;;11.57;2.38;;;;;;;10.82;100.00;100735.03;5087013;28;20035;-77
2023/03/15 09:55:26;;;;;;;10.40;2.33;;;;;;;10.95;100.00;100743.53;5074670;28;20058;-77
2023/03/15 09:57:54;;;;;;;12.75;2.58;;;;;;;11.14;100.00;100737.25;5085475;28;20028;-78
2023/03/15 10:00:37;;;;;;;14.55;2.83;;;;;;;11.27;100.00;100736.56;5067519;28;20255;-77
2023/03/15 10:03:05;;;;;;;11.80;2.40;;;;;;;11.38;100.00;100740.91;5078388;28;20020;-77
2023/03/15 10:05:33;;;;;;;9.90;2.13;;;;;;;11.51;100.00;100756.06;5064195;28;20023;-77
2023/03/15 10:07:59;;;;;;;9.32;1.80;;;;;;;11.61;100.00;100744.00;5095679;28;20087;-78
2023/03/15 10:10:30;;;;;;;11.05;2.22;;;;;;;11.73;100.00;100746.34;5068981;28;20498;-77
2023/03/15 10:13:02;;;;;;;14.63;2.30;;;;;;;11.85;100.00;100744.84;5079710;28;20035;-77
2023/03/15 10:15:35;;;;;;;9.45;2.17;;;;;;;12.00;100.00;100751.34;5060901;28;20028;-78
2023/03/15 10:18:14;;;;;;;11.85;2.00;;;;;;;12.09;100.00;100749.59;5096452;28;20039;-77
2023/03/15 10:20:41;;;;;;;9.63;2.08;;;;;;;12.23;100.00;100752.44;5081191;28;20031;-77
2023/03/15 10:23:22;;;;;;;12.07;2.42;;;;;;;12.40;100.00;100751.97;5070547;28;20028;-77
2023/03/15 10:25:48;;;;;;;11.15;2.15;;;;;;;12.54;100.00;100752.84;5080231;28;20374;-77
2023/03/15 10:28:22;;;;;;;10.38;1.70;;;;;;;12.67;100.00;100759.63;5064317;28;20071;-77
2023/03/15 10:30:48;;;;;;;11.05;2.22;;;;;;;12.75;100.00;100750.56;5096829;28;20039;-77
2023/03/15 10:33:26;;;;;;;11.38;2.63;;;;;;;12.81;100.00;100754.09;5067271;28;20027;-77
2023/03/15 10:35:52;;;;;;;8.15;1.80;;;;;;;12.92;100.00;100752.81;5101039;28;20032;-77
2023/03/15 10:38:21;;;;;;;11.70;2.50;;;;;;;12.99;100.00;100750.47;5084003;28;20055;-78
2023/03/15 10:40:49;;;;;;;8.48;2.40;;;;;;;13.01;100.00;100753.78;5087105;28;20585;-78
2023/03/15 10:43:25;;;;;;;8.60;2.03;;;;;;;13.05;100.00;100752.03;5055064;28;20036;-78
2023/03/15 10:46:03;;;;;;;6.93;1.50;;;;;;;13.09;100.00;100763.41;5054622;28;20043;-77
2023/03/15 10:48:30;;;;;;;8.70;1.83;;;;;;;13.12;100.00;100762.78;5138110;27;20503;-77
2023/03/15 10:50:56;;;;;;;12.32;1.98;;;;;;;13.14;100.00;100764.13;5100825;28;20528;-77
2023/03/15 10:53:24;;;;;;;11.10;1.65;;;;;;;13.14;100.00;100764.13;5134406;27;20107;-78
2023/03/15 10:55:56;;;;;;;11.18;1.90;;;;;;;13.14;100.00;100758.56;5121312;27;20031;-77
2023/03/15 10:58:27;;;;;;;12.05;2.33;;;;;;;13.15;100.00;100762.19;5092292;27;20054;-78
2023/03/15 11:01:01;;;;;;;11.57;2.00;;;;;;;13.21;100.00;100757.38;5099002;28;20024;-78
2023/03/15 11:03:26;;;;;;;13.20;2.28;;;;;;;13.23;100.00;100749.50;5120409;27;20047;-77
2023/03/15 11:05:53;;;;;;;13.05;2.15;;;;;;;13.26;100.00;100748.91;5082887;27;20031;-77
2023/03/15 11:08:20;;;;;;;8.20;1.73;;;;;;;13.32;100.00;100747.72;5097810;27;20527;-78
2023/03/15 11:10:53;;;;;;;10.88;1.80;;;;;;;13.40;95.06;100733.88;5114644;27;20027;-77
2023/03/15 11:13:23;;;;;;;9.35;2.03;;;;;;;13.52;100.00;100719.41;5102328;27;20027;-78
2023/03/15 11:15:52;;;;;;;13.30;2.25;;;;;;;13.62;100.00;100719.22;5100810;27;20036;-78
2023/03/15 11:18:20;;;;;;;10.40;1.63;;;;;;;13.75;100.00;100723.13;5148035;27;20035;-77